Flight Track Log - Related Links

Times and Time Zones

All times are in EDT time to prevent confusion due to time zone crossing. See the UPS109 flight status page for this flight to view local times or setup timezone preferences in your user account.

Time Position Orientation Groundspeed Altitude Reporting Facility
EDT Latitude Longitude Course Direction KTS MPH feet Rate Location/Type
Wed 06:26:42 PM 61.1910 -150.0070 235° Southwest  Level FlightAware ADS-B
Wed 06:33:22 PM 61.1880 -150.0080 345° North 500 276 Climbing FlightAware ADS-B
Wed 06:33:57 PM 61.2150 -150.0340 335° Northwest 181 208 2,000 2,267 Climbing FlightAware ADS-B
Wed 06:34:07 PM 61.2210 -150.0460 316° Northwest 194 223 2,200 1,500 Climbing FlightAware ADS-B
Wed 06:34:37 PM 61.2440 -150.0870 319° Northwest 228 262 3,000 1,800 Climbing FlightAware ADS-B
Wed 06:35:07 PM 61.2720 -150.1270 326° Northwest 250 288 4,000 1,867 Climbing FlightAware ADS-B
Wed 06:35:22 PM 61.2840 -150.1320 349° North 256 295 4,400 2,550 Climbing FlightAware ADS-B
Wed 06:35:47 PM 61.3130 -150.1000 28° Northeast 258 297 5,700 2,836 Climbing FlightAware ADS-B
Wed 06:36:17 PM 61.3360 -150.0430 50° Northeast 268 308 7,000 2,743 Climbing FlightAware ADS-B
Wed 06:36:22 PM 61.3390 -150.0290 66° East 268 308 7,300 2,160 Climbing FlightAware ADS-B
Wed 06:36:42 PM 61.3420 -149.9940 80° East 266 306 7,900 2,400 Climbing FlightAware ADS-B
Wed 06:37:12 PM 61.3380 -149.9140 96° East 272 313 9,300 2,743 Climbing FlightAware ADS-B
Wed 06:37:52 PM 61.3280 -149.7990 100° East 291 335 11,100 1,582 Climbing FlightAware ADS-B
Wed 06:39:02 PM 61.3120 -149.5650 98° East 389 448 12,200 1,757 Climbing FlightAware ADS-B
Wed 06:40:12 PM 61.2930 -149.3000 98° East 414 476 15,200 2,457 Climbing FlightAware ADS-B
Wed 06:40:47 PM 61.2780 -149.1620 103° East 428 493 16,500 2,175 Climbing FlightAware ADS-B
Wed 06:41:32 PM 61.2590 -148.9740 102° East 445 512 18,100 2,188 Climbing FlightAware ADS-B
Wed 06:42:12 PM 61.2420 -148.8080 102° East 455 524 19,600 2,175 Climbing FlightAware ADS-B
Wed 06:42:52 PM 61.2230 -148.6320 103° East 465 535 21,000 2,047 Climbing FlightAware ADS-B
Wed 06:43:37 PM 61.1980 -148.4410 105° East 472 543 22,500 1,125 Climbing FlightAware ADS-B
Wed 06:44:12 PM 61.1770 -148.3010 107° East 472 543 22,500  Level FlightAware ADS-B
Wed 06:45:02 PM 61.1500 -148.1170 107° East 472 543 22,500  Level FlightAware ADS-B
Wed 06:45:42 PM 61.1280 -147.9700 107° East 472 543 22,500  Level FlightAware ADS-B
Wed 06:46:22 PM 61.1060 -147.8230 107° East 472 543 22,500  Level FlightAware ADS-B
Wed 06:47:02 PM 61.0850 -147.6760 106° East 472 543 22,500 4,382 Level FlightAware ADS-B
Wed 06:47:51 PM 61.0167 -147.3000 106° East 530 610 29,000 4,679 Climbing Anchorage Center
Wed 06:48:51 PM 60.9667 -147.0167 110° East 510 587 31,000 1,000 Climbing Anchorage Center
Wed 06:49:51 PM 60.9167 -146.7333 110° East 510 587 31,000  Level Anchorage Center
Wed 06:50:51 PM 60.8833 -146.4500 103° East 510 587 31,000  Level Anchorage Center
Wed 06:51:51 PM 60.8333 -146.1833 111° Southeast 520 598 31,000  Level Anchorage Center
Wed 06:52:51 PM 60.7833 -145.9000 110° East 510 587 31,000  Level Anchorage Center
Wed 06:53:51 PM 60.7333 -145.6333 111° Southeast 510 587 31,000  Level Anchorage Center
Wed 06:54:51 PM 60.6833 -145.3500 110° East 510 587 31,000  Level Anchorage Center
Wed 06:55:51 PM 60.6333 -145.0833 111° Southeast 510 587 31,000  Level Anchorage Center
Wed 06:56:51 PM 60.5833 -144.8000 110° East 510 587 31,000  Level Anchorage Center
Wed 06:57:52 PM 60.5333 -144.5333 111° Southeast 510 587 31,000  Level Anchorage Center
Wed 06:58:52 PM 60.4833 -144.2667 111° Southeast 510 587 31,000  Level Anchorage Center
Wed 06:59:52 PM 60.4333 -144.0000 111° Southeast 510 587 31,000  Level Anchorage Center
Wed 07:00:52 PM 60.3833 -143.7333 111° Southeast 500 575 31,000  Level Anchorage Center
Wed 07:01:52 PM 60.3333 -143.4667 111° Southeast 500 575 31,000  Level Anchorage Center
Wed 07:02:52 PM 60.2833 -143.2000 111° Southeast 510 587 31,000  Level Anchorage Center
Wed 07:03:52 PM 60.2167 -142.9333 117° Southeast 500 575 31,000  Level Anchorage Center
Wed 07:04:52 PM 60.1667 -142.6667 111° Southeast 500 575 31,000  Level Anchorage Center
Wed 07:05:52 PM 60.1167 -142.4000 111° Southeast 490 564 31,000  Level Anchorage Center
Wed 07:06:53 PM 60.0667 -142.1500 112° Southeast 500 575 31,000  Level Anchorage Center
Wed 07:07:53 PM 60.0167 -141.9000 112° Southeast 490 564 31,000  Level Anchorage Center
Wed 07:08:53 PM 59.9500 -141.6500 118° Southeast 490 564 31,000  Level Anchorage Center
Wed 07:09:53 PM 59.9000 -141.3833 110° East 490 564 31,000  Level Anchorage Center
Wed 07:10:53 PM 59.8500 -141.1500 113° Southeast 480 552 31,000  Level Anchorage Center
Wed 07:11:53 PM 59.7833 -140.8833 116° Southeast 490 564 31,000  Level Anchorage Center
Wed 07:12:53 PM 59.7333 -140.6500 113° Southeast 480 552 31,000  Level Anchorage Center
Wed 07:13:53 PM 59.6833 -140.4000 112° Southeast 480 552 31,000  Level Anchorage Center
Wed 07:14:53 PM 59.6167 -140.1667 119° Southeast 480 552 31,000  Level Anchorage Center
Wed 07:15:54 PM 59.5667 -139.9167 111° Southeast 480 552 31,000  Level Anchorage Center
Wed 07:16:53 PM 59.5167 -139.7000 114° Southeast 470 541 31,000  Level Anchorage Center
Wed 07:17:54 PM 59.4667 -139.4500 111° Southeast 470 541 31,000  Level Anchorage Center
Wed 07:18:54 PM 59.4500 -139.2000 97° East 490 564 31,000  Level Anchorage Center
Wed 07:19:54 PM 59.4167 -138.9500 105° East 480 552 31,000  Level Anchorage Center
Wed 07:20:54 PM 59.4000 -138.6833 97° East 480 552 31,000  Level Anchorage Center
Wed 07:21:54 PM 59.3667 -138.4333 105° East 490 564 31,000  Level Anchorage Center
Wed 07:22:54 PM 59.3333 -138.1667 104° East 480 552 31,000  Level Anchorage Center
Wed 07:23:54 PM 59.3000 -137.9167 105° East 490 564 31,000  Level Anchorage Center
Wed 07:24:54 PM 59.2667 -137.6500 104° East 500 575 31,000  Level Anchorage Center
Wed 07:25:54 PM 59.2333 -137.3833 104° East 500 575 31,000  Level Anchorage Center
Wed 07:26:55 PM 59.2000 -137.1167 104° East 500 575 31,000  Level Anchorage Center
Wed 07:27:55 PM 59.1667 -136.8500 104° East 500 575 31,000  Level Anchorage Center
Wed 07:28:55 PM 59.1333 -136.5833 104° East 510 587 31,000  Level Anchorage Center
Wed 07:29:55 PM 59.0833 -136.3167 110° East 500 575 31,000  Level Anchorage Center
Wed 07:30:55 PM 59.0500 -136.0500 104° East 510 587 31,000  Level Anchorage Center
Wed 07:31:55 PM 59.0167 -135.7833 104° East 510 587 31,000  Level Anchorage Center
Wed 07:32:55 PM 58.9667 -135.5167 110° East 510 587 31,000  Level Anchorage Center
Wed 07:33:55 PM 58.9333 -135.2500 104° East 510 587 31,000  Level Anchorage Center
Wed 07:34:55 PM 58.8833 -134.9833 110° East 510 587 31,000  Level Anchorage Center
Wed 07:35:56 PM 58.8500 -134.7000 103° East 530 610 31,000  Level Anchorage Center
Wed 07:36:56 PM 58.8167 -134.4333 103° East 510 587 31,000  Level Anchorage Center
Wed 07:37:56 PM 58.7667 -134.1667 110° East 520 598 31,000  Level Anchorage Center
Wed 07:38:56 PM 58.7167 -133.9000 110° East 510 587 31,000  Level Anchorage Center
Wed 07:40:00 PM 58.6865 -133.6338 108° East  Level FlightAware Approximate
Wed 07:47:00 PM 58.3927 -131.9461 108° East  Level FlightAware Approximate
Wed 07:48:00 PM 58.3489 -131.7074 109° East  Level FlightAware Approximate
Wed 07:49:00 PM 58.3046 -131.4693 110° East  Level FlightAware Approximate
Wed 07:50:00 PM 58.2595 -131.2320 110° East  Level FlightAware Approximate
Wed 07:51:00 PM 58.2141 -130.9953 110° East  Level FlightAware Approximate
Wed 07:52:00 PM 58.1681 -130.7592 110° East  Level FlightAware Approximate
Wed 07:53:00 PM 58.1218 -130.5237 110° East  Level FlightAware Approximate
Wed 07:54:00 PM 58.0750 -130.2889 111° Southeast  Level FlightAware Approximate
Wed 07:55:00 PM 58.0278 -130.0546 111° Southeast  Level FlightAware Approximate
Wed 07:56:00 PM 57.9806 -129.8206 111° Southeast  Level FlightAware Approximate
Wed 07:57:00 PM 57.9332 -129.5871 111° Southeast  Level FlightAware Approximate
Wed 07:58:00 PM 57.8854 -129.3543 111° Southeast  Level FlightAware Approximate
Wed 07:59:00 PM 57.8371 -129.1220 111° Southeast  Level FlightAware Approximate
Wed 08:00:00 PM 57.7885 -128.8904 111° Southeast  Level FlightAware Approximate
Wed 08:01:00 PM 57.7394 -128.6594 112° Southeast  Level FlightAware Approximate
Wed 08:02:00 PM 57.6898 -128.4290 112° Southeast  Level FlightAware Approximate
Wed 08:03:00 PM 57.6399 -128.1993 112° Southeast  Level FlightAware Approximate
Wed 08:04:00 PM 57.5896 -127.9702 112° Southeast  Level FlightAware Approximate
Wed 08:05:00 PM 57.5388 -127.7417 112° Southeast  Level FlightAware Approximate
Wed 08:06:00 PM 57.4876 -127.5138 113° Southeast  Level FlightAware Approximate
Wed 08:07:00 PM 57.4360 -127.2867 113° Southeast  Level FlightAware Approximate
Wed 08:08:00 PM 57.3840 -127.0601 113° Southeast  Level FlightAware Approximate
Wed 08:09:00 PM 57.3316 -126.8342 113° Southeast  Level FlightAware Approximate
Wed 08:10:00 PM 57.2788 -126.6089 113° Southeast  Level FlightAware Approximate
Wed 08:11:00 PM 57.2256 -126.3843 114° Southeast  Level FlightAware Approximate
Wed 08:12:00 PM 57.1717 -126.1606 114° Southeast  Level FlightAware Approximate
Wed 08:13:00 PM 57.1175 -125.9375 114° Southeast  Level FlightAware Approximate
Wed 08:13:35 PM 56.8500 -125.0167 115° Southeast 560 644 31,000  Level Edmonton Center
Wed 08:14:00 PM 57.0628 -125.7150 114° Southeast  Level FlightAware Approximate
Wed 08:14:35 PM 56.8000 -124.8000 113° Southeast 530 610 31,000  Level Edmonton Center
Wed 08:15:00 PM 57.0078 -125.4933 114° Southeast  Level FlightAware Approximate
Wed 08:15:35 PM 56.7333 -124.5333 114° Southeast 530 610 31,000  Level Edmonton Center
Wed 08:16:00 PM 56.9523 -125.2721 115° Southeast  Level FlightAware Approximate
Wed 08:16:35 PM 56.6833 -124.2833 110° East 530 610 31,000  Level Edmonton Center
Wed 08:17:00 PM 56.8965 -125.0517 115° Southeast  Level FlightAware Approximate
Wed 08:17:35 PM 56.6167 -124.0500 117° Southeast 530 610 31,000  Level Edmonton Center
Wed 08:18:00 PM 56.8410 -124.8313 115° Southeast  Level FlightAware Approximate
Wed 08:18:35 PM 56.5500 -123.8000 116° Southeast 530 610 31,000  Level Edmonton Center
Wed 08:19:00 PM 56.7853 -124.6113 115° Southeast  Level FlightAware Approximate
Wed 08:19:35 PM 56.4667 -123.5667 123° Southeast 530 610 31,000  Level Edmonton Center
Wed 08:20:35 PM 56.4167 -123.3167 110° East 530 610 31,000  Level Edmonton Center
Wed 08:21:35 PM 56.3500 -123.0667 116° Southeast 530 610 31,000  Level Edmonton Center
Wed 08:22:35 PM 56.2833 -122.8167 116° Southeast 530 610 31,000  Level Edmonton Center
Wed 08:23:35 PM 56.2167 -122.6000 119° Southeast 530 610 31,000  Level Edmonton Center
Wed 08:25:00 PM 56.1351 -122.2959 116° Southeast  Level FlightAware Approximate
Wed 08:25:35 PM 56.0833 -122.1167 116° Southeast 530 610 31,000  Level Edmonton Center
Wed 08:26:35 PM 56.0167 -121.9000 119° Southeast 530 610 31,000  Level Edmonton Center
Wed 08:27:35 PM 55.9333 -121.6500 121° Southeast 530 610 31,000  Level Edmonton Center
Wed 08:28:35 PM 55.8667 -121.4333 119° Southeast 520 598 31,000  Level Edmonton Center
Wed 08:29:35 PM 55.8000 -121.1833 115° Southeast 520 598 31,000  Level Edmonton Center
Wed 08:30:35 PM 55.7500 -120.9500 111° Southeast 520 598 31,000  Level Edmonton Center
Wed 08:31:35 PM 55.6667 -120.7333 124° Southeast 520 598 31,000  Level Edmonton Center
Wed 08:32:35 PM 55.6000 -120.4833 115° Southeast 530 610 31,000  Level Edmonton Center
Wed 08:33:35 PM 55.5333 -120.2833 120° Southeast 520 598 31,000  Level Edmonton Center
Wed 08:34:35 PM 55.4500 -120.0333 120° Southeast 520 598 31,000  Level Edmonton Center
Wed 08:35:35 PM 55.3833 -119.8167 118° Southeast 520 598 31,000  Level Edmonton Center
Wed 08:36:35 PM 55.3167 -119.5833 117° Southeast 530 610 31,000  Level Edmonton Center
Wed 08:37:35 PM 55.2333 -119.3667 124° Southeast 530 610 31,000  Level Edmonton Center
Wed 08:38:35 PM 55.1667 -119.1333 116° Southeast 520 598 31,000  Level Edmonton Center
Wed 08:39:35 PM 55.0833 -118.9167 124° Southeast 530 610 31,000  Level Edmonton Center
Wed 08:40:35 PM 55.0167 -118.6833 116° Southeast 530 610 31,000  Level Edmonton Center
Wed 08:41:35 PM 54.9333 -118.4833 126° Southeast 520 598 31,000  Level Edmonton Center
Wed 08:42:35 PM 54.8500 -118.2667 124° Southeast 520 598 31,000  Level Edmonton Center
Wed 08:43:35 PM 54.7833 -118.0333 116° Southeast 520 598 31,000  Level Edmonton Center
Wed 08:44:35 PM 54.7000 -117.8333 126° Southeast 520 598 31,000  Level Edmonton Center
Wed 08:45:35 PM 54.6333 -117.6333 120° Southeast 530 610 31,000  Level Edmonton Center
Wed 08:51:57 PM 54.1410 -116.2140 120° Southeast 534 615 31,000  Level FlightAware ADS-B
Wed 08:52:42 PM 54.0850 -116.0700 124° Southeast 534 615 31,000  Level FlightAware ADS-B
Wed 08:53:17 PM 54.0440 -115.9580 122° Southeast 534 615 31,000  Level FlightAware ADS-B
Wed 08:54:02 PM 53.9690 -115.7750 125° Southeast 535 616 31,000  Level FlightAware ADS-B
Wed 08:54:47 PM 53.9060 -115.6160 124° Southeast 533 613 31,000  Level FlightAware ADS-B
Wed 08:55:22 PM 53.8560 -115.4910 124° Southeast 532 612 31,000  Level FlightAware ADS-B
Wed 08:56:07 PM 53.7950 -115.3390 124° Southeast 532 612 31,000  Level FlightAware ADS-B
Wed 08:57:07 PM 53.7110 -115.1310 124° Southeast 531 611 31,000  Level FlightAware ADS-B
Wed 08:57:47 PM 53.6540 -114.9890 124° Southeast 535 616 31,000  Level FlightAware ADS-B
Wed 08:58:32 PM 53.5920 -114.8390 125° Southeast 535 616 31,000  Level FlightAware ADS-B
Wed 08:59:27 PM 53.5170 -114.6560 125° Southeast 537 618 31,000  Level FlightAware ADS-B
Wed 09:00:07 PM 53.4580 -114.5140 125° Southeast 537 618 31,000  Level FlightAware ADS-B
Wed 09:01:32 PM 53.3420 -114.2360 125° Southeast 537 618 31,000  Level FlightAware ADS-B
Wed 09:02:42 PM 53.2420 -113.9990 125° Southeast 535 616 31,000  Level FlightAware ADS-B
Wed 09:04:07 PM 53.1040 -113.7270 130° Southeast 540 621 31,000  Level FlightAware ADS-B
Wed 09:05:17 PM 52.9800 -113.5200 135° Southeast 543 625 31,000  Level FlightAware ADS-B
Wed 09:06:27 PM 52.8560 -113.3130 135° Southeast 544 626 31,000  Level FlightAware ADS-B
Wed 09:07:07 PM 52.7850 -113.1940 135° Southeast 543 625 31,000  Level FlightAware ADS-B
Wed 09:07:47 PM 52.7130 -113.0760 135° Southeast 541 623 31,000  Level FlightAware ADS-B
Wed 09:08:32 PM 52.6340 -112.9460 135° Southeast 541 623 31,000  Level FlightAware ADS-B
Wed 09:09:12 PM 52.5640 -112.8320 135° Southeast 540 621 31,000  Level FlightAware ADS-B
Wed 09:09:57 PM 52.4830 -112.7000 135° Southeast 531 611 31,000  Level FlightAware ADS-B
Wed 09:10:37 PM 52.4150 -112.5890 135° Southeast 530 610 31,000  Level FlightAware ADS-B
Wed 09:11:22 PM 52.3340 -112.4600 136° Southeast 527 606 31,000  Level FlightAware ADS-B
Wed 09:12:02 PM 52.2640 -112.3480 136° Southeast 528 608 31,000  Level FlightAware ADS-B
Wed 09:12:42 PM 52.1930 -112.2340 135° Southeast 525 604 31,000  Level FlightAware ADS-B
Wed 09:13:27 PM 52.1130 -112.1080 136° Southeast 524 603 31,000  Level FlightAware ADS-B
Wed 09:14:07 PM 52.0440 -111.9980 136° Southeast 524 603 31,000  Level FlightAware ADS-B
Wed 09:14:52 PM 51.9630 -111.8720 136° Southeast 524 603 31,000  Level FlightAware ADS-B
Wed 09:15:27 PM 51.9070 -111.7840 136° Southeast 524 603 31,000  Level FlightAware ADS-B
Wed 09:16:12 PM 51.8290 -111.6630 136° Southeast 524 603 31,000  Level FlightAware ADS-B
Wed 09:16:57 PM 51.7470 -111.5350 136° Southeast 531 611 31,000  Level FlightAware ADS-B
Wed 09:17:52 PM 51.6460 -111.3800 136° Southeast 532 612 31,000  Level FlightAware ADS-B
Wed 09:18:32 PM 51.5740 -111.2700 136° Southeast 533 613 31,000  Level FlightAware ADS-B
Wed 09:19:17 PM 51.4920 -111.1440 136° Southeast 533 613 31,000  Level FlightAware ADS-B
Wed 09:19:52 PM 51.4310 -111.0530 137° Southeast 533 613 31,000  Level FlightAware ADS-B
Wed 09:20:32 PM 51.3610 -110.9470 137° Southeast 533 613 31,000  Level FlightAware ADS-B
Wed 09:21:22 PM 51.2840 -110.8290 136° Southeast 534 615 31,000  Level FlightAware ADS-B
Wed 09:21:57 PM 51.2150 -110.7260 137° Southeast 533 613 31,000  Level FlightAware ADS-B
Wed 09:22:47 PM 51.1400 -110.6100 136° Southeast 533 613 31,000  Level FlightAware ADS-B
Wed 09:23:27 PM 51.0790 -110.5170 136° Southeast 533 613 31,000  Level FlightAware ADS-B
Wed 09:24:07 PM 51.0190 -110.4250 136° Southeast 533 613 31,000  Level FlightAware ADS-B
Wed 09:24:47 PM 50.9590 -110.3320 136° Southeast 533 613 31,000  Level FlightAware ADS-B
Wed 09:25:27 PM 50.8980 -110.2400 136° Southeast 533 613 31,000  Level FlightAware ADS-B
Wed 09:26:17 PM 50.8230 -110.1250 136° Southeast 533 613 31,000  Level FlightAware ADS-B
Wed 09:26:57 PM 50.7630 -110.0320 136° Southeast 533 613 31,000  Level FlightAware ADS-B
Wed 09:27:37 PM 50.7020 -109.9400 136° Southeast 533 613 31,000  Level FlightAware ADS-B
Wed 09:28:17 PM 50.6420 -109.8490 136° Southeast 533 613 31,000  Level FlightAware ADS-B
Wed 09:28:57 PM 50.5820 -109.7570 136° Southeast 533 613 31,000  Level FlightAware ADS-B
Wed 09:29:47 PM 50.5060 -109.6420 136° Southeast 533 613 31,000  Level FlightAware ADS-B
Wed 09:30:27 PM 50.4460 -109.5510 136° Southeast 533 613 31,000  Level FlightAware ADS-B
Wed 09:31:07 PM 50.3860 -109.4590 136° Southeast 533 613 31,000  Level FlightAware ADS-B
Wed 09:31:35 PM 50.1167 -109.1667 136° Southeast 540 621 31,000  Level Edmonton Center
Wed 09:32:17 PM 50.0333 -109.0833 147° Southeast 550 633 31,000  Level Winnipeg Center
Wed 09:33:16 PM 49.9167 -108.9333 140° Southeast 550 633 31,000  Level Winnipeg Center
Wed 09:34:16 PM 49.8167 -108.8000 139° Southeast 550 633 31,000  Level Winnipeg Center
Wed 09:35:16 PM 49.7000 -108.6167 134° Southeast 550 633 31,000  Level Winnipeg Center
Wed 09:36:16 PM 49.5833 -108.4833 143° Southeast 550 633 31,000  Level Winnipeg Center
Wed 09:37:16 PM 49.4833 -108.3167 133° Southeast 540 621 31,000  Level Winnipeg Center
Wed 09:37:35 PM 49.4333 -108.2500 139° Southeast 540 621 31,000  Level Edmonton Center
Wed 09:38:16 PM 49.3667 -108.1667 141° Southeast 540 621 31,000  Level Winnipeg Center
Wed 09:39:16 PM 49.2333 -108.0000 141° Southeast 550 633 31,000  Level Winnipeg Center
Wed 09:40:16 PM 49.1333 -107.8833 143° Southeast 530 610 31,000  Level Winnipeg Center
Wed 09:41:16 PM 49.0333 -107.7333 135° Southeast 530 610 31,000  Level Winnipeg Center
Wed 09:42:16 PM 48.9167 -107.5667 137° Southeast 520 598 31,000  Level Winnipeg Center
Wed 09:43:16 PM 48.8000 -107.4167 140° Southeast 520 598 31,000  Level Winnipeg Center
Wed 09:43:35 PM 48.7667 -107.3667 135° Southeast 510 587 31,000  Level Edmonton Center
Wed 09:44:16 PM 48.7000 -107.3000 147° Southeast 510 587 31,000  Level Winnipeg Center
Wed 09:44:45 PM 48.6817 -107.2200 109° East 512 589 31,000  Level Salt Lake Center
Wed 09:45:46 PM 48.5731 -107.0808 140° Southeast 513 590 31,000  Level Salt Lake Center
Wed 09:46:47 PM 48.4661 -106.9450 140° Southeast 508 585 31,000  Level Salt Lake Center
Wed 09:47:48 PM 48.3597 -106.8086 140° Southeast 505 581 31,000  Level Salt Lake Center
Wed 09:48:50 PM 48.2528 -106.6744 140° Southeast 503 579 31,000  Level Salt Lake Center
Wed 09:49:51 PM 48.1631 -106.4706 123° Southeast 493 567 31,000  Level Salt Lake Center
Wed 09:50:52 PM 48.1039 -106.2881 116° Southeast 490 564 31,000 49 Level Salt Lake Center
Wed 09:51:54 PM 48.0442 -106.1069 116° Southeast 488 562 31,100 683 Climbing Salt Lake Center
Wed 09:52:55 PM 47.9819 -105.9256 117° Southeast 491 565 32,400 885 Climbing Salt Lake Center
Wed 09:53:56 PM 47.9197 -105.7419 117° Southeast 495 570 32,900 293 Climbing Salt Lake Center
Wed 09:54:58 PM 47.8597 -105.5614 116° Southeast 493 567 33,000 49 Climbing Salt Lake Center
Wed 09:55:59 PM 47.7978 -105.3819 117° Southeast 491 565 33,000  Level Salt Lake Center
Wed 09:57:01 PM 47.7358 -105.2008 117° Southeast 492 566 33,000  Level Salt Lake Center
Wed 09:58:02 PM 47.6617 -104.9878 117° Southeast 490 564 33,000  Level Salt Lake Center
Wed 09:59:03 PM 47.6008 -104.8083 117° Southeast 490 564 33,000  Level Salt Lake Center
Wed 10:00:05 PM 47.5389 -104.6306 117° Southeast 489 563 33,000  Level Salt Lake Center
Wed 10:01:06 PM 47.4742 -104.4522 118° Southeast 491 565 33,000  Level Salt Lake Center
Wed 10:02:07 PM 47.4108 -104.2736 118° Southeast 494 568 33,000  Level Salt Lake Center
Wed 10:03:09 PM 47.3481 -104.0981 118° Southeast 492 566 33,000  Level Salt Lake Center
Wed 10:04:10 PM 47.2853 -103.9228 118° Southeast 492 566 33,000  Level Salt Lake Center
Wed 10:05:12 PM 47.2094 -103.7117 118° Southeast 492 566 33,000  Level Salt Lake Center
Wed 10:06:13 PM 47.1444 -103.5372 119° Southeast 491 565 33,000  Level Salt Lake Center
Wed 10:07:13 PM 47.0811 -103.3644 118° Southeast 488 562 33,000  Level Minneapolis Center
Wed 10:08:15 PM 47.0144 -103.1850 119° Southeast 488 562 33,000  Level Minneapolis Center
Wed 10:09:16 PM 46.9517 -103.0169 119° Southeast 488 562 33,000  Level Minneapolis Center
Wed 10:10:17 PM 46.8869 -102.8444 119° Southeast 487 560 33,000  Level Minneapolis Center
Wed 10:11:18 PM 46.8283 -102.6669 116° Southeast 487 560 33,000  Level Minneapolis Center
Wed 10:12:19 PM 46.7750 -102.4861 113° Southeast 487 560 33,000  Level Minneapolis Center
Wed 10:13:20 PM 46.7217 -102.3058 113° Southeast 485 558 33,000  Level Minneapolis Center
Wed 10:14:21 PM 46.6572 -102.0917 114° Southeast 482 555 33,000  Level Minneapolis Center
Wed 10:15:22 PM 46.6039 -101.9150 114° Southeast 478 550 33,000  Level Minneapolis Center
Wed 10:16:23 PM 46.5506 -101.7397 114° Southeast 477 549 33,000  Level Minneapolis Center
Wed 10:17:25 PM 46.4933 -101.5531 114° Southeast 476 548 33,000  Level Minneapolis Center
Wed 10:18:26 PM 46.4389 -101.3772 114° Southeast 479 551 33,000  Level Minneapolis Center
Wed 10:19:27 PM 46.3839 -101.2006 114° Southeast 482 555 33,000  Level Minneapolis Center
Wed 10:20:28 PM 46.3286 -101.0236 114° Southeast 482 555 33,000  Level Minneapolis Center
Wed 10:21:29 PM 46.2731 -100.8481 115° Southeast 479 551 33,000  Level Minneapolis Center
Wed 10:22:30 PM 46.2178 -100.6744 115° Southeast 474 545 33,000  Level Minneapolis Center
Wed 10:23:31 PM 46.1628 -100.5025 115° Southeast 471 542 33,000  Level Minneapolis Center
Wed 10:24:33 PM 46.1075 -100.3308 115° Southeast 471 542 33,000  Level Minneapolis Center
Wed 10:25:34 PM 46.0517 -100.1589 115° Southeast 475 547 33,000  Level Minneapolis Center
Wed 10:26:35 PM 45.9947 -99.9872 115° Southeast 473 544 33,000  Level Minneapolis Center
Wed 10:27:36 PM 45.9333 -99.8211 118° Southeast 468 539 33,000  Level Minneapolis Center
Wed 10:28:37 PM 45.8711 -99.6569 119° Southeast 466 536 33,000  Level Minneapolis Center
Wed 10:29:38 PM 45.8092 -99.4936 119° Southeast 463 533 33,000  Level Minneapolis Center
Wed 10:30:39 PM 45.7350 -99.2989 119° Southeast 462 532 33,000  Level Minneapolis Center
Wed 10:31:40 PM 45.6728 -99.1375 119° Southeast 461 531 33,000  Level Minneapolis Center
Wed 10:32:41 PM 45.6111 -98.9772 119° Southeast 459 528 33,000  Level Minneapolis Center
Wed 10:33:43 PM 45.5489 -98.8175 119° Southeast 459 528 33,000  Level Minneapolis Center
Wed 10:38:57 PM 45.2300 -98.0120 119° Southeast 442 509 33,000  Level FlightAware ADS-B
Wed 10:39:42 PM 45.1810 -97.8890 119° Southeast 444 511 33,000  Level FlightAware ADS-B
Wed 10:40:22 PM 45.1400 -97.7870 120° Southeast 445 512 33,000  Level FlightAware ADS-B
Wed 10:41:02 PM 45.1000 -97.6900 120° Southeast 447 514 33,000  Level FlightAware ADS-B
Wed 10:41:47 PM 45.0530 -97.5750 120° Southeast 448 516 33,000  Level FlightAware ADS-B
Wed 10:42:27 PM 45.0120 -97.4730 120° Southeast 448 516 33,000  Level FlightAware ADS-B
Wed 10:43:12 PM 44.9680 -97.3660 120° Southeast 447 514 33,000  Level FlightAware ADS-B
Wed 10:43:52 PM 44.9230 -97.2570 120° Southeast 447 514 33,000  Level FlightAware ADS-B
Wed 10:44:32 PM 44.8810 -97.1560 120° Southeast 446 513 33,000  Level FlightAware ADS-B
Wed 10:45:17 PM 44.8370 -97.0480 120° Southeast 445 512 33,000  Level FlightAware ADS-B
Wed 10:45:57 PM 44.7940 -96.9450 120° Southeast 445 512 33,000  Level FlightAware ADS-B
Wed 10:46:37 PM 44.7520 -96.8450 121° Southeast 445 512 33,000  Level FlightAware ADS-B
Wed 10:47:22 PM 44.7050 -96.7320 120° Southeast 444 511 33,000  Level FlightAware ADS-B
Wed 10:48:02 PM 44.6630 -96.6330 121° Southeast 441 507 33,000  Level FlightAware ADS-B
Wed 10:48:47 PM 44.6170 -96.5240 121° Southeast 439 505 33,000  Level FlightAware ADS-B
Wed 10:49:27 PM 44.5760 -96.4280 121° Southeast 437 503 33,000  Level FlightAware ADS-B
Wed 10:50:12 PM 44.5280 -96.3160 121° Southeast 435 501 33,000  Level FlightAware ADS-B
Wed 10:50:52 PM 44.4870 -96.2190 121° Southeast 433 498 33,000  Level FlightAware ADS-B
Wed 10:51:32 PM 44.4470 -96.1250 121° Southeast 433 498 33,000  Level FlightAware ADS-B
Wed 10:52:17 PM 44.4010 -96.0190 121° Southeast 432 497 33,000  Level FlightAware ADS-B
Wed 10:52:57 PM 44.3590 -95.9210 121° Southeast 433 498 33,000  Level FlightAware ADS-B
Wed 10:53:42 PM 44.3120 -95.8120 121° Southeast 433 498 33,000  Level FlightAware ADS-B
Wed 10:54:22 PM 44.2710 -95.7170 121° Southeast 434 499 33,000  Level FlightAware ADS-B
Wed 10:55:02 PM 44.2280 -95.6200 122° Southeast 436 502 33,000  Level FlightAware ADS-B
Wed 10:55:47 PM 44.1830 -95.5160 121° Southeast 438 504 33,000  Level FlightAware ADS-B
Wed 10:56:27 PM 44.1400 -95.4190 122° Southeast 437 503 33,000  Level FlightAware ADS-B
Wed 10:57:12 PM 44.0920 -95.3090 121° Southeast 437 503 33,000  Level FlightAware ADS-B
Wed 10:57:47 PM 44.0560 -95.2300 122° Southeast 437 503 33,000  Level FlightAware ADS-B
Wed 10:58:32 PM 44.0080 -95.1190 121° Southeast 438 504 33,000  Level FlightAware ADS-B
Wed 10:59:17 PM 43.9610 -95.0140 122° Southeast 439 505 33,000  Level FlightAware ADS-B
Wed 10:59:57 PM 43.9170 -94.9170 122° Southeast 440 506 33,000  Level FlightAware ADS-B
Wed 11:00:42 PM 43.8680 -94.8080 122° Southeast 439 505 33,000  Level FlightAware ADS-B
Wed 11:01:22 PM 43.8260 -94.7130 121° Southeast 440 506 33,000  Level FlightAware ADS-B
Wed 11:02:02 PM 43.7820 -94.6170 122° Southeast 442 509 33,000  Level FlightAware ADS-B
Wed 11:02:47 PM 43.7350 -94.5130 122° Southeast 443 510 33,000  Level FlightAware ADS-B
Wed 11:03:27 PM 43.6900 -94.4150 122° Southeast 445 512 33,000  Level FlightAware ADS-B
Wed 11:04:12 PM 43.6410 -94.3060 122° Southeast 445 512 33,000  Level FlightAware ADS-B
Wed 11:04:52 PM 43.5960 -94.2080 122° Southeast 444 511 33,000  Level FlightAware ADS-B
Wed 11:05:32 PM 43.5520 -94.1130 123° Southeast 446 513 33,000  Level FlightAware ADS-B
Wed 11:06:17 PM 43.5040 -94.0090 122° Southeast 448 516 33,000  Level FlightAware ADS-B
Wed 11:06:57 PM 43.4590 -93.9110 122° Southeast 449 517 33,000  Level FlightAware ADS-B
Wed 11:07:42 PM 43.4070 -93.8000 123° Southeast 454 522 33,000  Level FlightAware ADS-B
Wed 11:08:22 PM 43.3610 -93.7040 123° Southeast 457 526 33,000  Level FlightAware ADS-B
Wed 11:09:07 PM 43.3100 -93.5950 123° Southeast 462 532 33,000  Level FlightAware ADS-B
Wed 11:09:47 PM 43.2640 -93.4980 123° Southeast 466 536 33,000  Level FlightAware ADS-B
Wed 11:10:27 PM 43.2170 -93.3990 123° Southeast 470 541 33,000  Level FlightAware ADS-B
Wed 11:11:12 PM 43.1610 -93.2820 123° Southeast 473 544 33,000  Level FlightAware ADS-B
Wed 11:11:52 PM 43.1130 -93.1820 123° Southeast 475 547 33,000  Level FlightAware ADS-B
Wed 11:12:32 PM 43.0650 -93.0830 124° Southeast 476 548 33,000  Level FlightAware ADS-B
Wed 11:13:17 PM 43.0120 -92.9730 123° Southeast 477 549 33,000  Level FlightAware ADS-B
Wed 11:13:57 PM 42.9630 -92.8720 124° Southeast 474 545 33,000  Level FlightAware ADS-B
Wed 11:14:42 PM 42.9080 -92.7580 123° Southeast 473 544 33,000  Level FlightAware ADS-B
Wed 11:15:22 PM 42.8610 -92.6620 124° Southeast 470 541 33,000 71 Level FlightAware ADS-B
Wed 11:16:07 PM 42.8080 -92.5530 124° Southeast 468 539 33,100 800 Climbing FlightAware ADS-B
Wed 11:16:37 PM 42.7750 -92.4870 124° Southeast 461 531 34,000 1,425 Climbing FlightAware ADS-B
Wed 11:17:27 PM 42.7130 -92.3610 124° Southeast 464 534 35,000 667 Climbing FlightAware ADS-B
Wed 11:18:07 PM 42.6660 -92.2670 124° Southeast 469 540 35,000  Level FlightAware ADS-B
Wed 11:18:52 PM 42.6090 -92.1510 124° Southeast 471 542 35,000  Level FlightAware ADS-B
Wed 11:19:37 PM 42.5530 -92.0380 124° Southeast 472 543 35,000  Level FlightAware ADS-B
Wed 11:20:17 PM 42.5060 -91.9460 125° Southeast 473 544 35,000  Level FlightAware ADS-B
Wed 11:20:57 PM 42.4580 -91.8480 124° Southeast 472 543 35,000  Level FlightAware ADS-B
Wed 11:21:42 PM 42.3980 -91.7310 125° Southeast 472 543 35,000  Level FlightAware ADS-B
Wed 11:22:22 PM 42.3550 -91.6440 124° Southeast 473 544 35,000  Level FlightAware ADS-B
Wed 11:23:07 PM 42.2960 -91.5280 124° Southeast 471 542 35,000  Level FlightAware ADS-B
Wed 11:23:47 PM 42.2450 -91.4290 125° Southeast 469 540 35,000  Level FlightAware ADS-B
Wed 11:24:27 PM 42.1970 -91.3330 124° Southeast 469 540 35,000  Level FlightAware ADS-B
Wed 11:25:07 PM 42.1480 -91.2380 125° Southeast 468 539 35,000  Level FlightAware ADS-B
Wed 11:25:42 PM 42.1040 -91.1610 128° Southeast 463 533 35,000  Level FlightAware ADS-B
Wed 11:26:37 PM 42.0240 -91.0370 131° Southeast 462 532 35,000  Level FlightAware ADS-B
Wed 11:27:17 PM 41.9690 -90.9500 130° Southeast 462 532 35,000  Level FlightAware ADS-B
Wed 11:27:57 PM 41.9150 -90.8640 130° Southeast 462 532 35,000  Level FlightAware ADS-B
Wed 11:28:42 PM 41.8520 -90.7630 130° Southeast 462 532 35,000  Level FlightAware ADS-B
Wed 11:29:22 PM 41.7970 -90.6750 130° Southeast 462 532 35,000  Level FlightAware ADS-B
Wed 11:30:02 PM 41.7440 -90.5900 130° Southeast 461 531 35,000  Level FlightAware ADS-B
Wed 11:30:47 PM 41.6810 -90.4910 130° Southeast 461 531 35,000  Level FlightAware ADS-B
Wed 11:31:27 PM 41.6260 -90.4040 130° Southeast 461 531 35,000  Level FlightAware ADS-B
Wed 11:32:12 PM 41.5620 -90.3040 131° Southeast 462 532 35,000  Level FlightAware ADS-B
Wed 11:32:52 PM 41.5080 -90.2200 131° Southeast 463 533 35,000  Level FlightAware ADS-B
Wed 11:33:32 PM 41.4520 -90.1320 130° Southeast 464 534 35,000  Level FlightAware ADS-B
Wed 11:34:17 PM 41.3890 -90.0350 131° Southeast 465 535 35,000  Level FlightAware ADS-B
Wed 11:34:57 PM 41.3340 -89.9510 131° Southeast 466 536 35,000  Level FlightAware ADS-B
Wed 11:35:42 PM 41.2670 -89.8490 131° Southeast 465 535 35,000  Level FlightAware ADS-B
Wed 11:36:22 PM 41.2130 -89.7660 131° Southeast 467 537 35,000  Level FlightAware ADS-B
Wed 11:37:02 PM 41.1550 -89.6780 131° Southeast 466 536 35,000  Level FlightAware ADS-B
Wed 11:37:47 PM 41.0920 -89.5830 131° Southeast 465 535 35,000  Level FlightAware ADS-B
Wed 11:38:27 PM 41.0350 -89.4960 131° Southeast 466 536 35,000  Level FlightAware ADS-B
Wed 11:39:12 PM 40.9720 -89.4030 132° Southeast 465 535 35,000  Level FlightAware ADS-B
Wed 11:39:52 PM 40.9110 -89.3160 133° Southeast 464 534 35,000  Level FlightAware ADS-B
Wed 11:40:37 PM 40.8480 -89.2250 132° Southeast 464 534 35,000  Level FlightAware ADS-B
Wed 11:41:12 PM 40.7970 -89.1520 133° Southeast 463 533 35,000  Level FlightAware ADS-B
Wed 11:41:57 PM 40.7310 -89.0570 132° Southeast 463 533 35,000  Level FlightAware ADS-B
Wed 11:42:42 PM 40.6650 -88.9630 133° Southeast 463 533 35,000  Level FlightAware ADS-B
Wed 11:43:22 PM 40.6080 -88.8820 133° Southeast 463 533 35,000  Level FlightAware ADS-B
Wed 11:44:02 PM 40.5530 -88.8040 133° Southeast 464 534 35,000  Level FlightAware ADS-B
Wed 11:44:47 PM 40.4830 -88.7050 133° Southeast 465 535 35,000  Level FlightAware ADS-B
Wed 11:45:27 PM 40.4240 -88.6220 133° Southeast 465 535 35,000  Level FlightAware ADS-B
Wed 11:46:12 PM 40.3590 -88.5300 133° Southeast 464 534 35,000  Level FlightAware ADS-B
Wed 11:46:52 PM 40.3010 -88.4490 133° Southeast 464 534 35,000  Level FlightAware ADS-B
Wed 11:47:37 PM 40.2350 -88.3560 133° Southeast 464 534 35,000  Level FlightAware ADS-B
Wed 11:48:17 PM 40.1790 -88.2780 133° Southeast 463 533 35,000  Level FlightAware ADS-B
Wed 11:48:57 PM 40.1200 -88.1950 133° Southeast 464 534 35,000  Level FlightAware ADS-B
Wed 11:49:57 PM 40.0300 -88.0720 134° Southeast 466 536 35,000  Level FlightAware ADS-B
Wed 11:50:37 PM 39.9710 -87.9900 133° Southeast 471 542 35,000 -300 Level FlightAware ADS-B
Wed 11:51:17 PM 39.9100 -87.9050 133° Southeast 469 540 34,600 -900 Descending FlightAware ADS-B
Wed 11:51:57 PM 39.8510 -87.8240 133° Southeast 471 542 33,800 -1,425 Descending FlightAware ADS-B
Wed 11:52:37 PM 39.7890 -87.7390 133° Southeast 478 550 32,700 -1,553 Descending FlightAware ADS-B
Wed 11:53:22 PM 39.7200 -87.6460 134° Southeast 485 558 31,600 -1,400 Descending FlightAware ADS-B
Wed 11:54:07 PM 39.6500 -87.5500 133° Southeast 490 564 30,600 -1,059 Descending FlightAware ADS-B
Wed 11:54:47 PM 39.5880 -87.4650 133° Southeast 484 557 30,100 -847 Descending FlightAware ADS-B
Wed 11:55:32 PM 39.5170 -87.3690 134° Southeast 482 555 29,400 -847 Descending FlightAware ADS-B
Wed 11:56:12 PM 39.4570 -87.2880 134° Southeast 476 548 28,900 -750 Descending FlightAware ADS-B
Wed 11:56:52 PM 39.3960 -87.2060 134° Southeast 470 541 28,400 -1,129 Descending FlightAware ADS-B
Wed 11:57:37 PM 39.3300 -87.1180 134° Southeast 461 531 27,300 -2,000 Descending FlightAware ADS-B
Wed 11:58:22 PM 39.2660 -87.0310 134° Southeast 446 513 25,400 -2,682 Descending FlightAware ADS-B
Wed 11:59:02 PM 39.2110 -86.9580 134° Southeast 427 491 23,500 -3,150 Descending FlightAware ADS-B
Wed 11:59:42 PM 39.1530 -86.8810 134° Southeast 414 476 21,200 -3,075 Descending FlightAware ADS-B
Thu 12:00:22 AM 39.1010 -86.8120 134° Southeast 411 473 19,400 -2,541 Descending FlightAware ADS-B
Thu 12:01:07 AM 39.0440 -86.7360 134° Southeast 398 458 17,600 -2,667 Descending FlightAware ADS-B
Thu 12:01:52 AM 38.9890 -86.6640 134° Southeast 400 460 15,400 -1,650 Descending FlightAware ADS-B
Thu 12:02:27 AM 38.9480 -86.6090 134° Southeast 400 460 15,400 -2,842 Level FlightAware ADS-B
Thu 12:03:27 AM 38.8690 -86.5060 135° Southeast 339 390 10,900 -2,509 Descending FlightAware ADS-B
Thu 12:04:17 AM 38.8210 -86.4420 134° Southeast 302 348 10,800 -60 Descending FlightAware ADS-B
Thu 12:05:07 AM 38.7800 -86.3870 134° Southeast 302 348 10,800 -857 Level FlightAware ADS-B
Thu 12:05:27 AM 38.7530 -86.3540 136° Southeast 302 348 9,800 -1,091 Descending FlightAware ADS-B
Thu 12:06:02 AM 38.7230 -86.3140 134° Southeast 302 348 9,800  Level FlightAware ADS-B
Thu 12:06:27 AM 38.6950 -86.2780 135° Southeast 304 350 9,800  Level FlightAware ADS-B
Thu 12:07:12 AM 38.6480 -86.2230 138° Southeast 300 345 9,800  Level FlightAware ADS-B
Thu 12:07:42 AM 38.6160 -86.1850 137° Southeast 301 346 9,800  Level FlightAware ADS-B
Thu 12:08:07 AM 38.5920 -86.1560 137° Southeast 303 349 9,800  Level FlightAware ADS-B
Thu 12:08:32 AM 38.5680 -86.1270 137° Southeast 303 349 9,800  Level FlightAware ADS-B
Thu 12:09:02 AM 38.5430 -86.0950 135° Southeast 303 349 9,800  Level FlightAware ADS-B
Thu 12:09:12 AM 38.5130 -86.0980 184° South 305 351 9,800  Level FlightAware ADS-B
Thu 12:09:47 AM 38.4670 -86.0720 156° South 305 351 9,800  Level FlightAware ADS-B
Thu 12:10:12 AM 38.4350 -86.0540 156° South 307 353 9,800  Level FlightAware ADS-B
Thu 12:10:42 AM 38.3980 -86.0330 156° South 273 314 9,800 -600 Level FlightAware ADS-B
Thu 12:11:12 AM 38.3630 -86.0130 156° South 270 311 9,200 -1,418 Descending FlightAware ADS-B
Thu 12:11:37 AM 38.3330 -85.9960 156° South 274 315 8,500 -1,418 Descending FlightAware ADS-B
Thu 12:12:07 AM 38.3010 -85.9780 156° South 274 315 7,900 -1,200 Descending FlightAware ADS-B
Thu 12:12:32 AM 38.2720 -85.9620 157° South 273 314 7,400 -1,309 Descending FlightAware ADS-B
Thu 12:13:02 AM 38.2370 -85.9430 157° South 269 310 6,700 -1,300 Descending FlightAware ADS-B
Thu 12:13:32 AM 38.2020 -85.9240 157° South 264 304 6,100 -1,200 Descending FlightAware ADS-B
Thu 12:13:42 AM 38.1910 -85.9180 157° South 263 303 5,900 -1,200 Descending FlightAware ADS-B
Thu 12:14:12 AM 38.1570 -85.9000 157° South 260 299 5,300 -1,100 Descending FlightAware ADS-B
Thu 12:14:42 AM 38.1250 -85.8820 156° South 250 288 4,800 -873 Descending FlightAware ADS-B
Thu 12:15:07 AM 38.1010 -85.8630 148° Southeast 235 270 4,500 -764 Descending FlightAware ADS-B
Thu 12:15:37 AM 38.0740 -85.8410 147° Southeast 223 257 4,100 -764 Descending FlightAware ADS-B
Thu 12:16:02 AM 38.0540 -85.8250 148° Southeast 211 243 3,800 -450 Descending FlightAware ADS-B
Thu 12:16:17 AM 38.0430 -85.8130 139° Southeast 197 227 3,800 200 Level FlightAware ADS-B
Thu 12:16:32 AM 38.0400 -85.7990 105° East 185 213 3,900 -533 Climbing FlightAware ADS-B
Thu 12:17:02 AM 38.0460 -85.7650 77° East 181 208 3,400 -1,309 Descending FlightAware ADS-B
Thu 12:17:27 AM 38.0580 -85.7460 51° Northeast 176 203 2,700 -1,418 Descending FlightAware ADS-B
Thu 12:17:57 AM 38.0760 -85.7250 43° Northeast 168 193 2,100 -1,050 Descending FlightAware ADS-B
Thu 12:18:07 AM 38.0830 -85.7220 19° North 166 191 2,000 -960 Descending FlightAware ADS-B
Thu 12:18:22 AM 38.0940 -85.7200 North 169 194 1,700 -1,200 Descending FlightAware ADS-B
Thu 12:18:52 AM 38.1180 -85.7260 349° North 171 197 1,100 -1,000 Descending FlightAware ADS-B
Thu 12:19:22 AM 38.1410 -85.7330 347° North 160 184 700 -764 Descending FlightAware ADS-B
Thu 12:19:47 AM 38.1570 -85.7390 344° North 154 177 400 -720 Descending FlightAware ADS-B

Login

Don't have an account? Register now (free) for customized features, flight alerts, and more!